Main page
METAR-TAF:

METAR-TAF

Airports :

Hood Army Airfield

Fort Hood / Killeen, Texas, United States

latitude: 31-06N, longitude: 097-20W, elevation: 928 ft

Current weather observation

The report was made 18 minutes ago, at 20:58 UTC
Wind 16 mph from the South/Southwest
Temperature 82°F
Humidity 48%
Pressure 29.76 in. Hg
Visibility: 9 miles

METAR: KHLR 172058Z AUTO 20014KT 9SM M 28/16 A2976 RMK AO2 SLP070 T02770157 57031 $

Time: 14:16 (21:16 UTC)


TAF: missing

Weather observations and forecasts of more than 4000 airports (METAR and TAF reports).

The available stations are represented by yellow and red dots on the map.

Hover mouse over dot to see the name of the station.

Then click to see weather observations and forecasts.

To change the map : click on the green buttons with a black cross to zoom in, on the green button with a dash to zoom out, or on the green arrows for adjacent maps.


METAR-TAF: